Stations météo

réclame
Mon MeteoGroup
Arcen aws, Pays-Bas (6391): Température de l'air & dewpoint: 12.06.2018 13:00:00 - 18.06.2018 13:00:00 (CEST)Arcen aws, Pays-Bas (6391): Température de l'air 5cm: 12.06.2018 13:00:00 - 18.06.2018 13:00:00 (CEST)Arcen aws, Pays-Bas (6391): Vitesse du vent & gusts: 12.06.2018 13:00:00 - 18.06.2018 13:00:00 (CEST)Arcen aws, Pays-Bas (6391): Direction du vent: 12.06.2018 13:00:00 - 18.06.2018 13:00:00 (CEST)Arcen aws, Pays-Bas (6391): Quantités de précipitations: 12.06.2018 13:00:00 - 18.06.2018 13:00:00 (CEST)
Date & Time tt [°C] td [°C] tt 5cm [°C] ff [km/h] ff [knt] fx [km/h] fx [knt] dd rr [mm]
18.06.2018 13:00:00 18,7 15,2 19,0 10 5 - - WSW -
18.06.2018 12:00:00 19,7 14,4 20,7 14 8 32 18 SW 0,0
18.06.2018 11:00:00 18,4 13,6 18,9 18 10 29 16 WSW 0,0
18.06.2018 10:00:00 18,8 13,2 19,7 14 8 36 19 SW 0,0
18.06.2018 09:00:00 18,1 12,7 18,5 14 8 25 14 SW 0,0
18.06.2018 08:00:00 17,2 12,6 17,4 7 4 22 12 SW 0,0
18.06.2018 07:00:00 16,3 12,2 16,1 7 4 18 10 SSW 0,0
18.06.2018 06:00:00 15,1 12,1 15,0 11 6 25 14 SW 0,0
18.06.2018 05:00:00 15,7 10,4 15,4 7 4 18 10 SW 0,0
18.06.2018 04:00:00 15,8 10,5 15,5 7 4 14 8 SSW 0,0
18.06.2018 03:00:00 15,9 10,1 15,5 7 4 18 10 SW 0,0
18.06.2018 02:00:00 15,7 11,1 15,4 4 2 11 6 SW 0,0
18.06.2018 01:00:00 15,3 11,7 14,9 4 2 7 4 SW 0,0
18.06.2018 00:00:00 15,5 12,0 15,2 4 2 7 4 SSE 0,0
17.06.2018 23:00:00 15,1 12,4 14,7 4 2 7 4 SE 0,0
17.06.2018 22:00:00 15,2 12,2 15,1 4 2 4 2 ESE 0,0
17.06.2018 21:00:00 15,8 11,8 15,7 4 2 11 6 N 0,0
17.06.2018 20:00:00 16,0 11,3 16,3 4 2 29 16 W 0,0
17.06.2018 19:00:00 17,7 9,3 17,6 11 6 25 14 W 0,0
17.06.2018 18:00:00 18,8 9,3 19,6 11 6 25 14 W 0,0
17.06.2018 17:00:00 18,3 9,6 18,9 11 6 25 14 WSW 0,0
17.06.2018 16:00:00 18,8 9,4 20,0 14 8 29 16 WSW 0,0
17.06.2018 15:00:00 18,4 10,0 19,0 11 6 29 16 WSW 0,0
17.06.2018 14:00:00 17,9 10,0 17,9 11 6 25 14 WSW 0,0
17.06.2018 13:00:00 17,9 9,8 18,3 14 8 29 16 W 0,0
17.06.2018 12:00:00 17,5 10,1 18,4 14 8 29 16 WSW 0,0
17.06.2018 11:00:00 17,3 9,6 18,0 14 8 29 16 WSW 0,0
17.06.2018 10:00:00 17,2 10,7 18,2 14 8 29 16 WSW 0,0
17.06.2018 09:00:00 16,4 10,2 17,0 18 10 32 18 WSW 0,0
17.06.2018 08:00:00 16,0 9,9 16,6 18 10 43 23 WSW 0,0
17.06.2018 07:00:00 15,1 10,3 14,5 11 6 22 12 SW 0,0
17.06.2018 06:00:00 14,0 10,0 13,1 7 4 18 10 SW 0,0
17.06.2018 05:00:00 14,6 9,8 14,1 11 6 22 12 SW 0,0
17.06.2018 04:00:00 15,1 9,3 14,4 11 6 18 10 SW 0,0
17.06.2018 03:00:00 14,7 9,6 13,9 7 4 11 6 SW 0,0
17.06.2018 02:00:00 14,5 9,8 13,4 4 2 14 8 WSW 0,0
17.06.2018 01:00:00 14,7 10,3 13,5 7 4 18 10 WSW 0,0
17.06.2018 00:00:00 14,7 12,5 13,0 4 2 7 4 S 0,0
16.06.2018 23:00:00 15,9 12,0 13,9 4 2 11 6 WNW 0,0
16.06.2018 22:00:00 17,9 12,7 17,0 4 2 18 10 WNW 0,0
16.06.2018 21:00:00 19,1 12,5 18,6 7 4 18 10 WNW 0,0
16.06.2018 20:00:00 20,2 12,5 20,0 7 4 22 12 WNW 0,0
16.06.2018 19:00:00 20,7 12,9 20,1 7 4 29 16 WSW 0,0
16.06.2018 18:00:00 21,6 13,6 21,4 11 6 18 10 WSW 0,0
16.06.2018 17:00:00 22,9 11,9 23,0 11 6 25 14 WSW 0,0
16.06.2018 16:00:00 24,4 11,6 26,5 14 8 25 14 WSW 0,0
16.06.2018 15:00:00 23,9 11,0 26,7 7 4 25 14 WSW 0,0
16.06.2018 14:00:00 23,2 11,4 25,2 11 6 29 16 WSW 0,0
16.06.2018 13:00:00 22,1 12,2 22,1 11 6 22 12 WSW 0,0
16.06.2018 12:00:00 22,4 13,5 24,7 11 6 18 10 WSW 0,0
16.06.2018 11:00:00 20,9 13,8 22,5 7 4 18 10 SSW 0,0
16.06.2018 10:00:00 19,3 12,8 20,4 7 4 14 8 WSW 0,0
16.06.2018 09:00:00 17,2 12,8 17,6 7 4 14 8 WSW 0,0
16.06.2018 08:00:00 16,2 13,5 16,4 7 4 18 10 WSW 0,0
16.06.2018 07:00:00 14,9 13,1 14,6 7 4 14 8 WSW 0,0
16.06.2018 06:00:00 14,4 12,7 13,7 7 4 14 8 SW 0,0
16.06.2018 05:00:00 14,4 12,5 13,5 7 4 11 6 SW 0,0
16.06.2018 04:00:00 13,3 12,9 12,0 4 2 4 2 SSE 0,0
16.06.2018 03:00:00 12,8 12,2 11,9 0 0 7 4 N 0,0
16.06.2018 02:00:00 12,4 11,5 11,2 4 2 4 2 N 0,0
16.06.2018 01:00:00 13,2 12,6 11,6 0 0 4 2 N 0,0
16.06.2018 00:00:00 13,5 12,8 11,9 0 0 4 2 N 0,0
15.06.2018 23:00:00 14,9 13,8 13,2 4 2 4 2 N 0,0
15.06.2018 22:00:00 17,1 14,1 15,3 0 0 4 2 N 0,0
15.06.2018 21:00:00 20,0 12,4 19,0 0 0 7 4 N 0,0
15.06.2018 20:00:00 22,0 12,0 21,8 4 2 11 6 W 0,0
15.06.2018 19:00:00 23,1 9,9 23,9 7 4 18 10 WSW 0,0
15.06.2018 18:00:00 24,4 9,8 26,2 7 4 18 10 SW 0,0
15.06.2018 17:00:00 24,2 11,7 25,9 7 4 22 12 S 0,0
15.06.2018 16:00:00 22,8 11,6 23,7 7 4 18 10 SW 0,0
15.06.2018 15:00:00 23,8 11,9 24,9 4 2 14 8 SSW 0,0
15.06.2018 14:00:00 21,4 10,9 22,6 4 2 14 8 NNW 0,0
15.06.2018 13:00:00 22,1 12,9 22,7 7 4 14 8 SW 0,0
15.06.2018 12:00:00 20,0 13,7 21,0 7 4 14 8 SW 0,0
15.06.2018 11:00:00 19,1 13,9 19,8 4 2 11 6 W 0,0
15.06.2018 10:00:00 19,4 13,9 21,0 4 2 14 8 SSE 0,0
15.06.2018 09:00:00 16,4 14,8 16,9 4 2 7 4 NW 0,0
15.06.2018 08:00:00 16,5 14,9 16,9 4 2 7 4 S 0,0
15.06.2018 07:00:00 14,8 14,5 14,9 4 2 7 4 SW 0,0
15.06.2018 06:00:00 13,0 12,7 11,8 4 2 7 4 S 0,0
15.06.2018 05:00:00 12,1 11,8 9,9 4 2 4 2 SSE 0,0
15.06.2018 04:00:00 13,0 12,5 11,6 0 0 11 6 N 0,0
15.06.2018 03:00:00 15,1 14,1 14,5 7 4 11 6 WSW 0,0
15.06.2018 02:00:00 15,6 14,4 15,6 4 2 11 6 WSW 0,0
15.06.2018 01:00:00 15,7 14,3 15,6 7 4 14 8 SW 0,0
15.06.2018 00:00:00 15,8 14,5 15,6 7 4 14 8 SW 0,0
14.06.2018 23:00:00 15,8 14,6 15,7 7 4 14 8 SW 0,0
14.06.2018 22:00:00 15,8 14,3 15,8 7 4 14 8 SSW 0,0
14.06.2018 21:00:00 15,8 14,5 15,9 4 2 22 12 SW 0,0
14.06.2018 20:00:00 16,3 14,4 16,4 11 6 32 18 W 0,0
14.06.2018 19:00:00 18,0 13,8 17,9 7 4 18 10 SW 0,0
14.06.2018 18:00:00 17,3 14,0 17,5 11 6 22 12 SW 0,1
14.06.2018 17:00:00 17,3 14,3 17,6 11 6 22 12 WSW 0,1
14.06.2018 16:00:00 18,0 12,7 18,1 11 6 32 18 WSW 0,0
14.06.2018 15:00:00 20,9 10,7 21,7 14 8 32 18 SW 0,0
14.06.2018 14:00:00 21,4 10,7 22,4 14 8 32 18 SW 0,0
14.06.2018 13:00:00 20,4 10,2 22,0 18 10 32 18 SW 0,0
14.06.2018 12:00:00 19,6 10,5 21,4 18 10 32 18 WSW 0,0
14.06.2018 11:00:00 19,6 10,9 20,5 18 10 36 19 SW 0,0
14.06.2018 10:00:00 18,5 11,6 19,8 14 8 25 14 SSW 0,0
14.06.2018 09:00:00 16,2 11,1 16,9 11 6 22 12 S 0,0
14.06.2018 08:00:00 14,0 10,4 14,1 7 4 14 8 S 0,0
14.06.2018 07:00:00 11,2 9,4 11,0 7 4 14 8 S 0,0
14.06.2018 06:00:00 10,1 8,8 9,5 7 4 11 6 S 0,0
14.06.2018 05:00:00 9,8 8,6 9,3 7 4 7 4 SSE 0,0
14.06.2018 04:00:00 10,0 9,0 8,6 7 4 7 4 SSE 0,0
14.06.2018 03:00:00 9,5 8,9 7,9 4 2 7 4 S 0,0
14.06.2018 02:00:00 10,7 9,8 9,9 4 2 7 4 S 0,0
14.06.2018 01:00:00 10,1 9,5 8,2 4 2 7 4 S 0,0
14.06.2018 00:00:00 10,2 9,7 8,3 4 2 7 4 SSE 0,0
13.06.2018 23:00:00 11,0 10,1 9,2 0 0 4 2 N 0,0
13.06.2018 22:00:00 12,6 10,4 10,9 0 0 4 2 N 0,0
13.06.2018 21:00:00 14,8 10,4 13,8 0 0 7 4 N 0,0
13.06.2018 20:00:00 17,1 9,5 16,8 4 2 11 6 N 0,0
13.06.2018 19:00:00 17,8 9,0 19,0 4 2 14 8 NW 0,0
13.06.2018 18:00:00 16,9 9,2 17,5 11 6 18 10 N 0,0
13.06.2018 17:00:00 16,5 9,1 16,7 14 8 25 14 NNW 0,0
13.06.2018 16:00:00 17,0 8,7 18,0 11 6 29 16 NNW 0,0
13.06.2018 15:00:00 18,1 9,8 19,9 11 6 22 12 NNW 0,0
13.06.2018 14:00:00 15,9 9,5 16,2 11 6 22 12 NNW 0,0
13.06.2018 13:00:00 15,2 9,4 15,9 11 6 25 14 N 0,0
13.06.2018 12:00:00 15,7 9,5 16,5 14 8 25 14 N 0,0
13.06.2018 11:00:00 15,1 9,1 15,9 14 8 22 12 NNW 0,0
13.06.2018 10:00:00 14,6 9,9 15,8 11 6 18 10 NNW 0,0
13.06.2018 09:00:00 14,1 10,6 15,2 7 4 22 12 WNW 0,0
13.06.2018 08:00:00 13,9 11,0 14,6 7 4 18 10 WNW 0,0
13.06.2018 07:00:00 13,4 10,9 13,3 4 2 11 6 NW 0,0
13.06.2018 06:00:00 12,9 10,4 12,5 4 2 11 6 NW 0,0
13.06.2018 05:00:00 12,8 10,6 12,3 4 2 11 6 NW 0,0
13.06.2018 04:00:00 12,9 10,6 12,5 7 4 14 8 NNW 0,0
13.06.2018 03:00:00 12,9 10,7 12,5 4 2 11 6 NNW 0,0
13.06.2018 02:00:00 12,7 10,2 11,4 4 2 11 6 NW 0,0
13.06.2018 01:00:00 11,8 9,8 10,1 4 2 14 8 NW 0,0
13.06.2018 00:00:00 13,5 10,2 12,4 7 4 11 6 NW 0,0
12.06.2018 23:00:00 14,0 11,1 13,2 4 2 11 6 NW 0,0
12.06.2018 22:00:00 15,0 11,1 14,6 7 4 14 8 NNW 0,0
12.06.2018 21:00:00 14,9 11,9 14,7 7 4 25 14 N 0,0
12.06.2018 20:00:00 15,9 11,0 15,9 14 8 22 12 N 0,0
12.06.2018 19:00:00 16,9 11,0 17,1 11 6 25 14 N 0,0
12.06.2018 18:00:00 17,4 10,8 17,7 11 6 22 12 N 0,0
12.06.2018 17:00:00 18,2 10,5 18,9 11 6 18 10 NNW 0,0
12.06.2018 16:00:00 18,3 11,2 19,6 7 4 11 6 N 0,0
12.06.2018 15:00:00 17,4 10,7 18,2 7 4 18 10 N 0,0
12.06.2018 14:00:00 16,8 10,9 17,7 11 6 18 10 N 0,0
12.06.2018 13:00:00 16,2 10,6 16,9 7 4 18 10 N 0,0

tt = Température de l'air
td = dewpoint
tt 5cm = Température de l'air 5cm
ff = Vitesse du vent
fx = gusts
dd = Direction du vent
rr = Quantités de précipitations

stations d'obs. à proximité